sensor_id;sensor_type;location;lat;lon;timestamp;P1;durP1;ratioP1;P2;durP2;ratioP2
9374;SDS011;4727;51.202;6.344;2022-10-18T00:01:07;8.80;;;7.70;;
9374;SDS011;4727;51.202;6.344;2022-10-18T00:03:33;7.83;;;7.00;;
9374;SDS011;4727;51.202;6.344;2022-10-18T00:06:00;8.03;;;7.33;;
9374;SDS011;4727;51.202;6.344;2022-10-18T00:08:27;8.33;;;7.50;;
9374;SDS011;4727;51.202;6.344;2022-10-18T00:10:53;12.17;;;8.00;;
9374;SDS011;4727;51.202;6.344;2022-10-18T00:13:19;12.23;;;8.37;;
9374;SDS011;4727;51.202;6.344;2022-10-18T00:15:48;14.27;;;8.77;;
9374;SDS011;4727;51.202;6.344;2022-10-18T00:18:19;10.30;;;8.37;;
9374;SDS011;4727;51.202;6.344;2022-10-18T00:20:46;9.20;;;8.20;;
9374;SDS011;4727;51.202;6.344;2022-10-18T00:23:20;12.10;;;8.83;;
9374;SDS011;4727;51.202;6.344;2022-10-18T00:25:46;9.47;;;8.20;;
9374;SDS011;4727;51.202;6.344;2022-10-18T00:28:11;10.53;;;8.07;;
9374;SDS011;4727;51.202;6.344;2022-10-18T00:30:37;8.63;;;7.57;;
9374;SDS011;4727;51.202;6.344;2022-10-18T00:33:03;8.77;;;7.80;;
9374;SDS011;4727;51.202;6.344;2022-10-18T00:35:28;12.57;;;9.07;;
9374;SDS011;4727;51.202;6.344;2022-10-18T00:37:54;10.27;;;8.07;;
9374;SDS011;4727;51.202;6.344;2022-10-18T00:40:19;9.83;;;8.80;;
9374;SDS011;4727;51.202;6.344;2022-10-18T00:42:45;9.70;;;8.70;;
9374;SDS011;4727;51.202;6.344;2022-10-18T00:47:42;10.97;;;8.70;;
9374;SDS011;4727;51.202;6.344;2022-10-18T00:50:10;16.87;;;9.50;;
9374;SDS011;4727;51.202;6.344;2022-10-18T00:52:38;13.73;;;9.20;;
9374;SDS011;4727;51.202;6.344;2022-10-18T00:55:09;14.00;;;9.70;;
9374;SDS011;4727;51.202;6.344;2022-10-18T00:57:35;9.63;;;8.70;;
9374;SDS011;4727;51.202;6.344;2022-10-18T01:00:03;20.13;;;9.70;;
9374;SDS011;4727;51.202;6.344;2022-10-18T01:02:33;12.07;;;10.03;;
9374;SDS011;4727;51.202;6.344;2022-10-18T01:05:04;12.90;;;9.60;;
9374;SDS011;4727;51.202;6.344;2022-10-18T01:07:41;11.27;;;10.20;;
9374;SDS011;4727;51.202;6.344;2022-10-18T01:13:08;16.13;;;11.47;;
9374;SDS011;4727;51.202;6.344;2022-10-18T01:15:52;13.87;;;11.87;;
9374;SDS011;4727;51.202;6.344;2022-10-18T01:21:18;19.20;;;13.80;;
9374;SDS011;4727;51.202;6.344;2022-10-18T01:32:02;17.47;;;12.27;;
9374;SDS011;4727;51.202;6.344;2022-10-18T01:34:34;19.37;;;14.53;;
9374;SDS011;4727;51.202;6.344;2022-10-18T01:37:03;20.77;;;15.00;;
9374;SDS011;4727;51.202;6.344;2022-10-18T01:39:33;17.27;;;13.83;;
9374;SDS011;4727;51.202;6.344;2022-10-18T01:42:03;20.37;;;14.77;;
9374;SDS011;4727;51.202;6.344;2022-10-18T01:44:32;22.20;;;15.03;;
9374;SDS011;4727;51.202;6.344;2022-10-18T01:46:59;23.73;;;16.00;;
9374;SDS011;4727;51.202;6.344;2022-10-18T01:49:25;19.70;;;13.77;;
9374;SDS011;4727;51.202;6.344;2022-10-18T01:51:51;17.43;;;13.77;;
9374;SDS011;4727;51.202;6.344;2022-10-18T01:54:19;18.93;;;14.77;;
9374;SDS011;4727;51.202;6.344;2022-10-18T01:56:57;24.20;;;15.13;;
9374;SDS011;4727;51.202;6.344;2022-10-18T02:02:08;24.63;;;15.90;;
9374;SDS011;4727;51.202;6.344;2022-10-18T02:10:33;29.37;;;15.83;;
9374;SDS011;4727;51.202;6.344;2022-10-18T02:13:00;32.87;;;18.43;;
9374;SDS011;4727;51.202;6.344;2022-10-18T02:15:29;23.67;;;16.53;;
9374;SDS011;4727;51.202;6.344;2022-10-18T02:17:58;31.50;;;17.33;;
9374;SDS011;4727;51.202;6.344;2022-10-18T02:20:27;24.97;;;17.70;;
9374;SDS011;4727;51.202;6.344;2022-10-18T02:22:56;24.97;;;18.07;;
9374;SDS011;4727;51.202;6.344;2022-10-18T02:25:24;26.70;;;18.23;;
9374;SDS011;4727;51.202;6.344;2022-10-18T02:27:53;31.57;;;19.93;;
9374;SDS011;4727;51.202;6.344;2022-10-18T02:30:23;36.67;;;21.17;;
9374;SDS011;4727;51.202;6.344;2022-10-18T02:33:08;30.13;;;20.43;;
9374;SDS011;4727;51.202;6.344;2022-10-18T02:35:43;28.20;;;20.50;;
9374;SDS011;4727;51.202;6.344;2022-10-18T02:38:14;33.60;;;20.97;;
9374;SDS011;4727;51.202;6.344;2022-10-18T02:40:43;43.53;;;21.67;;
9374;SDS011;4727;51.202;6.344;2022-10-18T02:43:08;31.97;;;19.47;;
9374;SDS011;4727;51.202;6.344;2022-10-18T02:45:34;33.03;;;20.50;;
9374;SDS011;4727;51.202;6.344;2022-10-18T02:47:59;35.03;;;20.23;;
9374;SDS011;4727;51.202;6.344;2022-10-18T02:50:25;35.77;;;20.77;;
9374;SDS011;4727;51.202;6.344;2022-10-18T02:52:51;32.57;;;19.83;;
9374;SDS011;4727;51.202;6.344;2022-10-18T02:55:16;41.47;;;21.53;;
9374;SDS011;4727;51.202;6.344;2022-10-18T02:57:42;36.43;;;21.10;;
9374;SDS011;4727;51.202;6.344;2022-10-18T03:00:08;39.83;;;21.97;;
9374;SDS011;4727;51.202;6.344;2022-10-18T03:02:34;38.73;;;21.97;;
9374;SDS011;4727;51.202;6.344;2022-10-18T03:04:59;30.50;;;20.70;;
9374;SDS011;4727;51.202;6.344;2022-10-18T03:07:25;35.13;;;22.03;;
9374;SDS011;4727;51.202;6.344;2022-10-18T03:09:50;43.00;;;22.93;;
9374;SDS011;4727;51.202;6.344;2022-10-18T03:12:16;39.60;;;23.00;;
9374;SDS011;4727;51.202;6.344;2022-10-18T03:14:41;42.83;;;24.77;;
9374;SDS011;4727;51.202;6.344;2022-10-18T03:17:07;39.70;;;23.33;;
9374;SDS011;4727;51.202;6.344;2022-10-18T03:19:33;40.87;;;24.70;;
9374;SDS011;4727;51.202;6.344;2022-10-18T03:21:58;37.23;;;23.70;;
9374;SDS011;4727;51.202;6.344;2022-10-18T03:24:24;35.33;;;22.53;;
9374;SDS011;4727;51.202;6.344;2022-10-18T03:26:49;31.93;;;23.00;;
9374;SDS011;4727;51.202;6.344;2022-10-18T03:29:15;41.70;;;23.83;;
9374;SDS011;4727;51.202;6.344;2022-10-18T03:31:40;42.03;;;24.20;;
9374;SDS011;4727;51.202;6.344;2022-10-18T03:34:06;44.57;;;24.73;;
9374;SDS011;4727;51.202;6.344;2022-10-18T03:36:32;32.63;;;21.87;;
9374;SDS011;4727;51.202;6.344;2022-10-18T03:38:58;27.00;;;20.63;;
9374;SDS011;4727;51.202;6.344;2022-10-18T03:41:23;30.07;;;20.63;;
9374;SDS011;4727;51.202;6.344;2022-10-18T03:43:49;46.70;;;23.97;;
9374;SDS011;4727;51.202;6.344;2022-10-18T03:46:15;36.97;;;23.57;;
9374;SDS011;4727;51.202;6.344;2022-10-18T03:48:41;39.10;;;24.37;;
9374;SDS011;4727;51.202;6.344;2022-10-18T03:51:06;46.10;;;26.20;;
9374;SDS011;4727;51.202;6.344;2022-10-18T03:53:32;45.40;;;26.27;;
9374;SDS011;4727;51.202;6.344;2022-10-18T03:55:57;50.37;;;27.50;;
9374;SDS011;4727;51.202;6.344;2022-10-18T03:58:23;41.60;;;26.30;;
9374;SDS011;4727;51.202;6.344;2022-10-18T04:00:49;39.47;;;26.33;;
9374;SDS011;4727;51.202;6.344;2022-10-18T04:03:16;42.80;;;27.10;;
9374;SDS011;4727;51.202;6.344;2022-10-18T04:05:43;40.10;;;26.53;;
9374;SDS011;4727;51.202;6.344;2022-10-18T04:08:09;36.43;;;25.77;;
9374;SDS011;4727;51.202;6.344;2022-10-18T04:10:36;37.77;;;26.03;;
9374;SDS011;4727;51.202;6.344;2022-10-18T04:13:02;45.33;;;29.17;;
9374;SDS011;4727;51.202;6.344;2022-10-18T04:15:28;41.23;;;28.17;;
9374;SDS011;4727;51.202;6.344;2022-10-18T04:17:54;38.33;;;27.37;;
9374;SDS011;4727;51.202;6.344;2022-10-18T04:20:20;46.10;;;29.43;;
9374;SDS011;4727;51.202;6.344;2022-10-18T04:22:47;37.20;;;27.67;;
9374;SDS011;4727;51.202;6.344;2022-10-18T04:25:13;44.63;;;29.97;;
9374;SDS011;4727;51.202;6.344;2022-10-18T04:27:39;38.97;;;28.47;;
9374;SDS011;4727;51.202;6.344;2022-10-18T04:30:05;39.83;;;28.23;;
9374;SDS011;4727;51.202;6.344;2022-10-18T04:32:30;43.43;;;28.97;;
9374;SDS011;4727;51.202;6.344;2022-10-18T04:34:56;42.00;;;29.07;;
9374;SDS011;4727;51.202;6.344;2022-10-18T04:37:22;47.40;;;30.40;;
9374;SDS011;4727;51.202;6.344;2022-10-18T04:39:47;45.87;;;30.70;;
9374;SDS011;4727;51.202;6.344;2022-10-18T04:42:13;43.17;;;29.57;;
9374;SDS011;4727;51.202;6.344;2022-10-18T04:44:39;44.40;;;29.87;;
9374;SDS011;4727;51.202;6.344;2022-10-18T04:47:04;37.80;;;27.60;;
9374;SDS011;4727;51.202;6.344;2022-10-18T04:49:30;33.30;;;27.20;;
9374;SDS011;4727;51.202;6.344;2022-10-18T04:51:56;40.37;;;27.03;;
9374;SDS011;4727;51.202;6.344;2022-10-18T04:54:21;39.80;;;27.17;;
9374;SDS011;4727;51.202;6.344;2022-10-18T04:56:47;39.00;;;26.10;;
9374;SDS011;4727;51.202;6.344;2022-10-18T04:59:12;35.93;;;26.50;;
9374;SDS011;4727;51.202;6.344;2022-10-18T05:01:38;31.50;;;25.83;;
9374;SDS011;4727;51.202;6.344;2022-10-18T05:04:03;33.40;;;26.27;;
9374;SDS011;4727;51.202;6.344;2022-10-18T05:06:29;40.97;;;26.87;;
9374;SDS011;4727;51.202;6.344;2022-10-18T05:08:54;36.87;;;25.70;;
9374;SDS011;4727;51.202;6.344;2022-10-18T05:11:20;34.30;;;26.50;;
9374;SDS011;4727;51.202;6.344;2022-10-18T05:13:46;35.07;;;26.97;;
9374;SDS011;4727;51.202;6.344;2022-10-18T05:16:11;45.53;;;27.53;;
9374;SDS011;4727;51.202;6.344;2022-10-18T05:18:37;45.63;;;28.17;;
9374;SDS011;4727;51.202;6.344;2022-10-18T05:21:02;40.20;;;28.23;;
9374;SDS011;4727;51.202;6.344;2022-10-18T05:23:28;43.13;;;28.03;;
9374;SDS011;4727;51.202;6.344;2022-10-18T05:25:53;38.27;;;27.83;;
9374;SDS011;4727;51.202;6.344;2022-10-18T05:28:19;38.60;;;27.17;;
9374;SDS011;4727;51.202;6.344;2022-10-18T05:30:44;47.07;;;29.17;;
9374;SDS011;4727;51.202;6.344;2022-10-18T05:33:10;44.00;;;29.50;;
9374;SDS011;4727;51.202;6.344;2022-10-18T05:35:36;58.80;;;32.30;;
9374;SDS011;4727;51.202;6.344;2022-10-18T05:38:02;49.73;;;30.03;;
9374;SDS011;4727;51.202;6.344;2022-10-18T05:40:29;52.03;;;31.37;;
9374;SDS011;4727;51.202;6.344;2022-10-18T05:42:55;53.80;;;31.07;;
9374;SDS011;4727;51.202;6.344;2022-10-18T05:45:21;54.50;;;30.37;;
9374;SDS011;4727;51.202;6.344;2022-10-18T05:47:46;44.37;;;28.40;;
9374;SDS011;4727;51.202;6.344;2022-10-18T05:50:12;38.93;;;28.93;;
9374;SDS011;4727;51.202;6.344;2022-10-18T05:52:37;44.77;;;30.20;;
9374;SDS011;4727;51.202;6.344;2022-10-18T05:55:03;43.47;;;28.13;;
9374;SDS011;4727;51.202;6.344;2022-10-18T05:57:29;34.37;;;27.47;;
9374;SDS011;4727;51.202;6.344;2022-10-18T05:59:55;44.13;;;30.20;;
9374;SDS011;4727;51.202;6.344;2022-10-18T06:02:20;37.17;;;27.13;;
9374;SDS011;4727;51.202;6.344;2022-10-18T06:04:46;52.93;;;31.77;;
9374;SDS011;4727;51.202;6.344;2022-10-18T06:07:11;46.20;;;31.60;;
9374;SDS011;4727;51.202;6.344;2022-10-18T06:09:37;51.83;;;33.43;;
9374;SDS011;4727;51.202;6.344;2022-10-18T06:12:03;55.00;;;32.10;;
9374;SDS011;4727;51.202;6.344;2022-10-18T06:14:29;51.10;;;32.43;;
9374;SDS011;4727;51.202;6.344;2022-10-18T06:16:55;53.50;;;32.10;;
9374;SDS011;4727;51.202;6.344;2022-10-18T06:19:21;66.87;;;35.43;;
9374;SDS011;4727;51.202;6.344;2022-10-18T06:21:49;47.03;;;31.73;;
9374;SDS011;4727;51.202;6.344;2022-10-18T06:24:15;49.67;;;31.57;;
9374;SDS011;4727;51.202;6.344;2022-10-18T06:26:42;61.97;;;34.63;;
9374;SDS011;4727;51.202;6.344;2022-10-18T06:29:08;56.87;;;36.67;;
9374;SDS011;4727;51.202;6.344;2022-10-18T06:31:33;52.17;;;34.93;;
9374;SDS011;4727;51.202;6.344;2022-10-18T06:33:59;62.23;;;36.83;;
9374;SDS011;4727;51.202;6.344;2022-10-18T06:36:28;56.43;;;34.23;;
9374;SDS011;4727;51.202;6.344;2022-10-18T06:38:54;61.43;;;36.57;;
9374;SDS011;4727;51.202;6.344;2022-10-18T06:41:20;68.00;;;37.30;;
9374;SDS011;4727;51.202;6.344;2022-10-18T06:43:50;54.10;;;35.30;;
9374;SDS011;4727;51.202;6.344;2022-10-18T06:46:18;52.07;;;32.70;;
9374;SDS011;4727;51.202;6.344;2022-10-18T06:48:44;53.73;;;36.10;;
9374;SDS011;4727;51.202;6.344;2022-10-18T06:51:10;49.10;;;33.87;;
9374;SDS011;4727;51.202;6.344;2022-10-18T06:53:36;54.40;;;35.00;;
9374;SDS011;4727;51.202;6.344;2022-10-18T06:56:04;63.77;;;37.70;;
9374;SDS011;4727;51.202;6.344;2022-10-18T06:58:32;49.50;;;35.57;;
9374;SDS011;4727;51.202;6.344;2022-10-18T07:01:03;51.57;;;35.00;;
9374;SDS011;4727;51.202;6.344;2022-10-18T07:03:33;64.90;;;38.30;;
9374;SDS011;4727;51.202;6.344;2022-10-18T07:05:59;63.90;;;37.80;;
9374;SDS011;4727;51.202;6.344;2022-10-18T07:08:29;74.37;;;39.17;;
9374;SDS011;4727;51.202;6.344;2022-10-18T07:10:55;63.33;;;38.07;;
9374;SDS011;4727;51.202;6.344;2022-10-18T07:13:21;68.00;;;39.70;;
9374;SDS011;4727;51.202;6.344;2022-10-18T07:15:47;71.07;;;40.07;;
9374;SDS011;4727;51.202;6.344;2022-10-18T07:18:12;80.70;;;43.30;;
9374;SDS011;4727;51.202;6.344;2022-10-18T07:20:38;96.30;;;46.37;;
9374;SDS011;4727;51.202;6.344;2022-10-18T07:23:03;72.53;;;39.53;;
9374;SDS011;4727;51.202;6.344;2022-10-18T07:25:32;69.50;;;40.90;;
9374;SDS011;4727;51.202;6.344;2022-10-18T07:27:58;78.30;;;42.10;;
9374;SDS011;4727;51.202;6.344;2022-10-18T07:30:24;70.43;;;40.10;;
9374;SDS011;4727;51.202;6.344;2022-10-18T07:32:50;72.33;;;41.57;;
9374;SDS011;4727;51.202;6.344;2022-10-18T07:35:16;80.97;;;41.33;;
9374;SDS011;4727;51.202;6.344;2022-10-18T07:37:42;86.97;;;45.57;;
9374;SDS011;4727;51.202;6.344;2022-10-18T07:40:08;85.43;;;44.47;;
9374;SDS011;4727;51.202;6.344;2022-10-18T07:42:35;77.60;;;44.20;;
9374;SDS011;4727;51.202;6.344;2022-10-18T07:45:00;78.33;;;42.83;;
9374;SDS011;4727;51.202;6.344;2022-10-18T07:47:26;74.33;;;43.47;;
9374;SDS011;4727;51.202;6.344;2022-10-18T07:49:52;95.80;;;45.90;;
9374;SDS011;4727;51.202;6.344;2022-10-18T07:52:17;102.80;;;47.37;;
9374;SDS011;4727;51.202;6.344;2022-10-18T07:54:43;106.73;;;48.33;;
9374;SDS011;4727;51.202;6.344;2022-10-18T07:57:08;107.50;;;48.60;;
9374;SDS011;4727;51.202;6.344;2022-10-18T07:59:34;118.40;;;49.93;;
9374;SDS011;4727;51.202;6.344;2022-10-18T08:01:59;113.33;;;48.43;;
9374;SDS011;4727;51.202;6.344;2022-10-18T08:04:25;151.93;;;53.33;;
9374;SDS011;4727;51.202;6.344;2022-10-18T08:06:50;128.67;;;50.97;;
9374;SDS011;4727;51.202;6.344;2022-10-18T08:09:16;99.43;;;48.77;;
9374;SDS011;4727;51.202;6.344;2022-10-18T08:11:41;89.93;;;45.93;;
9374;SDS011;4727;51.202;6.344;2022-10-18T08:14:07;86.83;;;46.80;;
9374;SDS011;4727;51.202;6.344;2022-10-18T08:16:33;82.60;;;44.23;;
9374;SDS011;4727;51.202;6.344;2022-10-18T08:18:58;86.30;;;45.60;;
9374;SDS011;4727;51.202;6.344;2022-10-18T08:21:24;83.80;;;46.30;;
9374;SDS011;4727;51.202;6.344;2022-10-18T08:23:50;99.23;;;48.07;;
9374;SDS011;4727;51.202;6.344;2022-10-18T08:26:18;118.17;;;49.77;;
9374;SDS011;4727;51.202;6.344;2022-10-18T08:28:44;132.97;;;50.30;;
9374;SDS011;4727;51.202;6.344;2022-10-18T08:31:11;104.70;;;47.57;;
9374;SDS011;4727;51.202;6.344;2022-10-18T08:33:39;114.37;;;51.73;;
9374;SDS011;4727;51.202;6.344;2022-10-18T08:36:06;149.03;;;53.73;;
9374;SDS011;4727;51.202;6.344;2022-10-18T08:38:33;99.17;;;47.70;;
9374;SDS011;4727;51.202;6.344;2022-10-18T08:44:09;94.73;;;47.43;;
9374;SDS011;4727;51.202;6.344;2022-10-18T08:47:03;94.63;;;45.67;;
9374;SDS011;4727;51.202;6.344;2022-10-18T08:54:58;85.87;;;44.23;;
9374;SDS011;4727;51.202;6.344;2022-10-18T08:57:32;85.57;;;46.10;;
9374;SDS011;4727;51.202;6.344;2022-10-18T08:59:57;94.23;;;46.37;;
9374;SDS011;4727;51.202;6.344;2022-10-18T09:02:38;87.67;;;44.07;;
9374;SDS011;4727;51.202;6.344;2022-10-18T09:05:38;89.50;;;43.97;;
9374;SDS011;4727;51.202;6.344;2022-10-18T09:16:01;88.07;;;43.30;;
9374;SDS011;4727;51.202;6.344;2022-10-18T09:21:19;85.63;;;42.43;;
9374;SDS011;4727;51.202;6.344;2022-10-18T09:23:54;84.03;;;42.30;;
9374;SDS011;4727;51.202;6.344;2022-10-18T09:26:43;78.53;;;40.93;;
9374;SDS011;4727;51.202;6.344;2022-10-18T09:31:57;77.40;;;40.40;;
9374;SDS011;4727;51.202;6.344;2022-10-18T09:37:19;83.33;;;40.93;;
9374;SDS011;4727;51.202;6.344;2022-10-18T09:39:48;85.67;;;44.33;;
9374;SDS011;4727;51.202;6.344;2022-10-18T09:44:43;82.83;;;45.93;;
9374;SDS011;4727;51.202;6.344;2022-10-18T09:49:50;88.87;;;44.97;;
9374;SDS011;4727;51.202;6.344;2022-10-18T09:52:26;89.00;;;46.30;;
9374;SDS011;4727;51.202;6.344;2022-10-18T09:54:59;81.10;;;43.60;;
9374;SDS011;4727;51.202;6.344;2022-10-18T09:59:57;77.63;;;42.83;;
9374;SDS011;4727;51.202;6.344;2022-10-18T10:02:25;79.23;;;42.97;;
9374;SDS011;4727;51.202;6.344;2022-10-18T10:04:51;71.67;;;39.93;;
9374;SDS011;4727;51.202;6.344;2022-10-18T10:07:24;62.23;;;38.53;;
9374;SDS011;4727;51.202;6.344;2022-10-18T10:12:26;65.97;;;38.10;;
9374;SDS011;4727;51.202;6.344;2022-10-18T10:17:53;57.77;;;35.80;;
9374;SDS011;4727;51.202;6.344;2022-10-18T10:20:27;54.30;;;35.13;;
9374;SDS011;4727;51.202;6.344;2022-10-18T10:22:54;57.37;;;36.13;;
9374;SDS011;4727;51.202;6.344;2022-10-18T10:25:34;62.67;;;39.10;;
9374;SDS011;4727;51.202;6.344;2022-10-18T10:28:03;57.73;;;38.90;;
9374;SDS011;4727;51.202;6.344;2022-10-18T10:30:36;57.17;;;36.33;;
9374;SDS011;4727;51.202;6.344;2022-10-18T10:33:03;60.90;;;38.40;;
9374;SDS011;4727;51.202;6.344;2022-10-18T10:35:33;59.00;;;37.43;;
9374;SDS011;4727;51.202;6.344;2022-10-18T10:38:01;59.87;;;37.87;;
9374;SDS011;4727;51.202;6.344;2022-10-18T10:40:28;55.67;;;37.90;;
9374;SDS011;4727;51.202;6.344;2022-10-18T10:43:03;58.10;;;37.97;;
9374;SDS011;4727;51.202;6.344;2022-10-18T10:45:30;54.00;;;37.10;;
9374;SDS011;4727;51.202;6.344;2022-10-18T10:48:03;49.87;;;35.47;;
9374;SDS011;4727;51.202;6.344;2022-10-18T10:58:46;45.07;;;32.00;;
9374;SDS011;4727;51.202;6.344;2022-10-18T11:01:23;40.30;;;30.67;;
9374;SDS011;4727;51.202;6.344;2022-10-18T11:03:55;38.77;;;29.20;;
9374;SDS011;4727;51.202;6.344;2022-10-18T11:08:56;42.93;;;28.63;;
9374;SDS011;4727;51.202;6.344;2022-10-18T11:11:25;36.37;;;27.80;;
9374;SDS011;4727;51.202;6.344;2022-10-18T11:13:57;35.57;;;26.63;;
9374;SDS011;4727;51.202;6.344;2022-10-18T11:16:31;35.37;;;27.73;;
9374;SDS011;4727;51.202;6.344;2022-10-18T11:19:04;35.63;;;27.07;;
9374;SDS011;4727;51.202;6.344;2022-10-18T11:21:36;34.63;;;25.23;;
9374;SDS011;4727;51.202;6.344;2022-10-18T11:24:03;33.27;;;25.63;;
9374;SDS011;4727;51.202;6.344;2022-10-18T11:26:51;31.87;;;24.73;;
9374;SDS011;4727;51.202;6.344;2022-10-18T11:32:22;32.93;;;24.87;;
9374;SDS011;4727;51.202;6.344;2022-10-18T11:35:03;34.73;;;25.73;;
9374;SDS011;4727;51.202;6.344;2022-10-18T11:43:04;31.07;;;21.40;;
9374;SDS011;4727;51.202;6.344;2022-10-18T12:05:44;26.37;;;21.97;;
9374;SDS011;4727;51.202;6.344;2022-10-18T12:08:17;30.10;;;21.57;;
9374;SDS011;4727;51.202;6.344;2022-10-18T12:10:56;25.20;;;19.53;;
9374;SDS011;4727;51.202;6.344;2022-10-18T12:13:28;27.43;;;18.43;;
9374;SDS011;4727;51.202;6.344;2022-10-18T12:16:15;30.20;;;19.60;;
9374;SDS011;4727;51.202;6.344;2022-10-18T12:18:46;29.90;;;22.13;;
9374;SDS011;4727;51.202;6.344;2022-10-18T12:21:20;33.37;;;21.63;;
9374;SDS011;4727;51.202;6.344;2022-10-18T12:26:28;26.33;;;19.80;;
9374;SDS011;4727;51.202;6.344;2022-10-18T12:31:41;22.53;;;18.27;;
9374;SDS011;4727;51.202;6.344;2022-10-18T12:39:44;30.50;;;21.50;;
9374;SDS011;4727;51.202;6.344;2022-10-18T12:42:19;28.17;;;20.27;;
9374;SDS011;4727;51.202;6.344;2022-10-18T12:44:58;22.60;;;17.73;;
9374;SDS011;4727;51.202;6.344;2022-10-18T12:47:28;25.90;;;17.50;;
9374;SDS011;4727;51.202;6.344;2022-10-18T12:49:55;23.70;;;16.77;;
9374;SDS011;4727;51.202;6.344;2022-10-18T12:52:25;22.83;;;17.10;;
9374;SDS011;4727;51.202;6.344;2022-10-18T13:22:27;20.83;;;14.37;;
9374;SDS011;4727;51.202;6.344;2022-10-18T13:33:23;20.60;;;13.60;;
9374;SDS011;4727;51.202;6.344;2022-10-18T13:41:01;23.27;;;12.93;;
9374;SDS011;4727;51.202;6.344;2022-10-18T13:46:17;17.67;;;10.50;;
9374;SDS011;4727;51.202;6.344;2022-10-18T14:06:09;15.47;;;10.10;;
9374;SDS011;4727;51.202;6.344;2022-10-18T14:11:29;16.23;;;9.50;;
9374;SDS011;4727;51.202;6.344;2022-10-18T14:14:05;16.20;;;9.27;;
9374;SDS011;4727;51.202;6.344;2022-10-18T14:24:52;13.53;;;8.50;;
9374;SDS011;4727;51.202;6.344;2022-10-18T14:27:21;13.57;;;8.27;;
9374;SDS011;4727;51.202;6.344;2022-10-18T14:29:50;12.20;;;8.38;;
9374;SDS011;4727;51.202;6.344;2022-10-18T14:32:33;14.07;;;8.87;;
9374;SDS011;4727;51.202;6.344;2022-10-18T14:34:59;21.13;;;12.03;;
9374;SDS011;4727;51.202;6.344;2022-10-18T14:37:26;17.83;;;11.97;;
9374;SDS011;4727;51.202;6.344;2022-10-18T14:39:54;13.20;;;11.10;;
9374;SDS011;4727;51.202;6.344;2022-10-18T14:42:20;13.83;;;8.50;;
9374;SDS011;4727;51.202;6.344;2022-10-18T14:44:48;17.40;;;9.53;;
9374;SDS011;4727;51.202;6.344;2022-10-18T14:47:16;15.83;;;9.57;;
9374;SDS011;4727;51.202;6.344;2022-10-18T14:49:44;14.37;;;9.33;;
9374;SDS011;4727;51.202;6.344;2022-10-18T14:52:24;14.20;;;10.83;;
9374;SDS011;4727;51.202;6.344;2022-10-18T14:54:54;15.17;;;9.63;;
9374;SDS011;4727;51.202;6.344;2022-10-18T14:57:28;15.53;;;10.40;;
9374;SDS011;4727;51.202;6.344;2022-10-18T15:00:00;15.43;;;10.13;;
9374;SDS011;4727;51.202;6.344;2022-10-18T15:02:29;15.60;;;10.17;;
9374;SDS011;4727;51.202;6.344;2022-10-18T15:05:04;17.17;;;9.50;;
9374;SDS011;4727;51.202;6.344;2022-10-18T15:07:32;15.63;;;10.07;;
9374;SDS011;4727;51.202;6.344;2022-10-18T15:09:59;14.90;;;9.67;;
9374;SDS011;4727;51.202;6.344;2022-10-18T15:12:27;17.70;;;10.33;;
9374;SDS011;4727;51.202;6.344;2022-10-18T15:14:53;14.20;;;10.20;;
9374;SDS011;4727;51.202;6.344;2022-10-18T15:17:21;15.17;;;9.80;;
9374;SDS011;4727;51.202;6.344;2022-10-18T15:19:53;16.87;;;10.40;;
9374;SDS011;4727;51.202;6.344;2022-10-18T15:22:22;18.03;;;11.00;;
9374;SDS011;4727;51.202;6.344;2022-10-18T15:25:09;15.73;;;9.70;;
9374;SDS011;4727;51.202;6.344;2022-10-18T15:27:37;12.93;;;8.77;;
9374;SDS011;4727;51.202;6.344;2022-10-18T15:30:17;13.83;;;8.07;;
9374;SDS011;4727;51.202;6.344;2022-10-18T15:32:47;14.33;;;8.43;;
9374;SDS011;4727;51.202;6.344;2022-10-18T15:35:22;13.43;;;9.40;;
9374;SDS011;4727;51.202;6.344;2022-10-18T15:37:50;15.33;;;9.20;;
9374;SDS011;4727;51.202;6.344;2022-10-18T15:42:52;14.37;;;8.77;;
9374;SDS011;4727;51.202;6.344;2022-10-18T15:50:48;14.43;;;6.27;;
9374;SDS011;4727;51.202;6.344;2022-10-18T15:53:33;10.63;;;6.70;;
9374;SDS011;4727;51.202;6.344;2022-10-18T15:56:29;10.93;;;6.43;;
9374;SDS011;4727;51.202;6.344;2022-10-18T15:58:57;12.43;;;6.10;;
9374;SDS011;4727;51.202;6.344;2022-10-18T16:01:37;15.63;;;6.73;;
9374;SDS011;4727;51.202;6.344;2022-10-18T16:04:07;11.10;;;5.63;;
9374;SDS011;4727;51.202;6.344;2022-10-18T16:06:44;15.47;;;6.80;;
9374;SDS011;4727;51.202;6.344;2022-10-18T16:09:11;10.07;;;5.77;;
9374;SDS011;4727;51.202;6.344;2022-10-18T16:11:41;14.90;;;6.23;;
9374;SDS011;4727;51.202;6.344;2022-10-18T16:14:07;11.07;;;5.40;;
9374;SDS011;4727;51.202;6.344;2022-10-18T16:16:33;14.30;;;5.93;;
9374;SDS011;4727;51.202;6.344;2022-10-18T16:18:59;13.33;;;5.60;;
9374;SDS011;4727;51.202;6.344;2022-10-18T16:21:26;11.93;;;5.90;;
9374;SDS011;4727;51.202;6.344;2022-10-18T16:23:54;12.63;;;6.20;;
9374;SDS011;4727;51.202;6.344;2022-10-18T16:26:21;12.17;;;5.53;;
9374;SDS011;4727;51.202;6.344;2022-10-18T16:28:47;12.00;;;5.57;;
9374;SDS011;4727;51.202;6.344;2022-10-18T16:31:15;10.27;;;5.43;;
9374;SDS011;4727;51.202;6.344;2022-10-18T16:33:42;9.77;;;6.00;;
9374;SDS011;4727;51.202;6.344;2022-10-18T16:36:10;10.63;;;6.07;;
9374;SDS011;4727;51.202;6.344;2022-10-18T16:38:39;11.23;;;6.67;;
9374;SDS011;4727;51.202;6.344;2022-10-18T16:41:06;11.90;;;6.53;;
9374;SDS011;4727;51.202;6.344;2022-10-18T16:43:32;16.20;;;7.17;;
9374;SDS011;4727;51.202;6.344;2022-10-18T16:45:59;11.47;;;7.30;;
9374;SDS011;4727;51.202;6.344;2022-10-18T16:48:25;14.70;;;6.83;;
9374;SDS011;4727;51.202;6.344;2022-10-18T16:50:52;13.17;;;7.63;;
9374;SDS011;4727;51.202;6.344;2022-10-18T16:53:19;13.57;;;9.17;;
9374;SDS011;4727;51.202;6.344;2022-10-18T16:55:49;17.27;;;8.30;;
9374;SDS011;4727;51.202;6.344;2022-10-18T16:58:17;12.57;;;8.63;;
9374;SDS011;4727;51.202;6.344;2022-10-18T17:00:43;13.60;;;8.20;;
9374;SDS011;4727;51.202;6.344;2022-10-18T17:03:10;15.93;;;9.63;;
9374;SDS011;4727;51.202;6.344;2022-10-18T17:05:37;15.27;;;9.90;;
9374;SDS011;4727;51.202;6.344;2022-10-18T17:08:03;15.93;;;9.97;;
9374;SDS011;4727;51.202;6.344;2022-10-18T17:10:28;15.90;;;9.53;;
9374;SDS011;4727;51.202;6.344;2022-10-18T17:12:54;15.37;;;9.17;;
9374;SDS011;4727;51.202;6.344;2022-10-18T17:15:19;15.93;;;8.43;;
9374;SDS011;4727;51.202;6.344;2022-10-18T17:17:45;10.93;;;7.87;;
9374;SDS011;4727;51.202;6.344;2022-10-18T17:20:16;19.40;;;9.13;;
9374;SDS011;4727;51.202;6.344;2022-10-18T17:22:45;13.47;;;8.63;;
9374;SDS011;4727;51.202;6.344;2022-10-18T17:25:10;17.27;;;9.30;;
9374;SDS011;4727;51.202;6.344;2022-10-18T17:27:36;20.30;;;9.63;;
9374;SDS011;4727;51.202;6.344;2022-10-18T17:30:02;22.50;;;9.13;;
9374;SDS011;4727;51.202;6.344;2022-10-18T17:32:28;22.57;;;10.17;;
9374;SDS011;4727;51.202;6.344;2022-10-18T17:34:53;17.67;;;9.97;;
9374;SDS011;4727;51.202;6.344;2022-10-18T17:37:19;14.10;;;9.87;;
9374;SDS011;4727;51.202;6.344;2022-10-18T17:39:44;20.00;;;10.80;;
9374;SDS011;4727;51.202;6.344;2022-10-18T17:42:10;15.27;;;11.10;;
9374;SDS011;4727;51.202;6.344;2022-10-18T17:44:36;16.80;;;12.23;;
9374;SDS011;4727;51.202;6.344;2022-10-18T17:47:01;18.27;;;12.27;;
9374;SDS011;4727;51.202;6.344;2022-10-18T17:49:27;19.23;;;12.53;;
9374;SDS011;4727;51.202;6.344;2022-10-18T17:51:52;18.60;;;12.17;;
9374;SDS011;4727;51.202;6.344;2022-10-18T17:54:18;12.87;;;11.27;;
9374;SDS011;4727;51.202;6.344;2022-10-18T17:56:44;15.93;;;11.67;;
9374;SDS011;4727;51.202;6.344;2022-10-18T17:59:09;13.47;;;11.80;;
9374;SDS011;4727;51.202;6.344;2022-10-18T18:01:35;19.37;;;11.43;;
9374;SDS011;4727;51.202;6.344;2022-10-18T18:04:01;14.07;;;9.97;;
9374;SDS011;4727;51.202;6.344;2022-10-18T18:06:28;19.53;;;10.63;;
9374;SDS011;4727;51.202;6.344;2022-10-18T18:08:58;13.20;;;9.70;;
9374;SDS011;4727;51.202;6.344;2022-10-18T18:11:25;19.23;;;9.20;;